EST,Max TemperatureF,Mean TemperatureF,Min TemperatureF,Max Dew PointF,MeanDew PointF,Min DewpointF,Max Humidity, Mean Humidity, Min Humidity, Max Sea Level PressureIn, Mean Sea Level PressureIn, Min Sea Level PressureIn, Max VisibilityMiles, Mean VisibilityMiles, Min VisibilityMiles, Max Wind SpeedMPH, Mean Wind SpeedMPH, Max Gust SpeedMPH,PrecipitationIn, CloudCover, Events, WindDirDegrees
2011-12-1,46,37,28,30,27,24,93,74,43,30.38,30.31,30.23,10,10,8,9,1,,0.00,2,,205
2011-12-2,48,36,23,31,26,21,93,73,48,30.54,30.42,30.30,10,10,8,12,2,17,0.00,0,,275
2011-12-3,57,41,25,34,30,23,92,69,37,30.55,30.47,30.38,10,9,5,4,0,,0.00,0,,235
2011-12-4,64,46,28,35,29,23,89,59,22,30.35,30.30,30.23,10,10,9,5,0,,0.00,0,,221
2011-12-5,66,54,42,52,43,34,87,63,45,30.24,30.14,30.00,10,10,7,12,2,23,0.11,5,Rain,178
2011-12-6,57,50,42,54,50,42,100,95,81,30.03,29.99,29.94,10,4,1,9,2,,0.64,8,Rain,1
2011-12-7,43,38,30,43,35,23,100,92,72,30.06,29.88,29.76,10,5,0,12,4,,0.78,8,Fog-Rain-Snow,315
2011-12-8,34,30,26,26,24,22,92,77,70,30.32,30.25,30.07,10,10,5,12,7,,0.15,5,,228
2011-12-9,42,32,21,29,25,20,92,78,53,30.30,30.26,30.20,10,9,5,10,1,18,0.11,1,,211
2011-12-10,36,30,21,29,21,12,82,66,40,30.55,30.42,30.29,10,10,9,13,4,,0.00,3,,281
2011-12-11,39,28,17,21,17,14,88,67,36,30.65,30.56,30.50,10,10,8,4,0,,0.00,0,,344
2011-12-12,45,32,18,24,19,14,88,68,35,30.53,30.48,30.42,10,10,8,5,0,,0.26,1,,240
2011-12-13,48,34,21,32,25,18,93,65,40,30.51,30.45,30.39,10,9,2,5,0,,0.00,3,,315
2011-12-14,50,44,39,46,40,32,100,87,73,30.39,30.26,30.09,10,7,0,5,1,,0.13,5,Fog-Rain,186
2011-12-15,60,52,44,54,49,40,94,80,57,30.07,29.95,29.88,10,8,1,22,10,37,0.26,7,Rain,228
2011-12-16,46,40,33,38,27,23,75,68,60,30.30,30.22,30.06,10,10,10,14,7,22,0.00,5,,271
2011-12-17,34,31,28,27,24,21,93,76,60,30.28,30.23,30.20,10,7,2,9,5,,0.00,8,Snow,261
2011-12-18,37,32,28,28,26,22,93,82,59,30.30,30.25,30.19,10,6,2,10,4,16,0.05,6,Snow,222
2011-12-19,46,39,32,38,28,22,85,60,50,30.23,30.15,30.09,10,10,10,14,5,18,0.02,5,Rain,212
2011-12-20,48,44,41,41,39,36,96,81,61,30.16,30.10,29.97,10,9,4,9,5,,0.04,7,Rain,204
2011-12-21,61,56,48,53,47,40,86,72,53,29.96,29.84,29.69,10,9,2,21,6,30,0.12,6,Rain,227
2011-12-22,51,46,42,45,41,39,93,83,67,30.11,29.99,29.85,10,9,2,15,2,,0.19,5,Rain,333
2011-12-23,46,42,36,43,36,33,93,88,73,30.27,30.14,29.93,10,9,4,12,7,18,0.06,8,Rain,278
2011-12-24,41,36,28,31,27,23,85,73,55,30.45,30.37,30.27,10,10,10,14,6,,0.00,5,,240
2011-12-25,46,38,30,29,26,24,82,61,41,30.33,30.19,30.04,10,10,10,15,7,26,0.00,2,,220
2011-12-26,43,38,32,27,25,24,79,62,49,30.40,30.26,30.04,10,10,10,15,6,23,0.00,3,,264
2011-12-27,44,38,33,40,35,27,100,89,75,29.99,29.62,29.36,10,5,0,23,4,32,1.10,7,Fog-Rain-Snow,271
2011-12-28,36,32,26,33,26,18,93,76,54,30.04,29.87,29.66,10,9,2,22,11,30,0.05,7,Rain-Snow,271
2011-12-29,44,35,26,30,25,21,85,66,47,30.03,29.93,29.84,10,10,10,14,4,20,0.00,6,,195
2011-12-30,55,47,39,43,34,26,83,58,43,29.96,29.84,29.73,10,10,6,16,9,23,0.02,4,Rain,199
2011-12-31,46,42,39,43,39,36,93,81,76,30.13,29.97,29.77,10,10,10,13,7,21,0.03,8,Rain,250